Flight Track Log - Related Links

Times and Time Zones

All times are in EDT time to prevent confusion due to time zone crossing. See the SWA1718 flight status page for this flight to view local times or setup timezone preferences in your user account.

Time Position Orientation Groundspeed Altitude Reporting Facility
EDT Latitude Longitude Course Direction KTS MPH feet Rate Location/Type
Mon 07:29:28 AM 41.7500 -87.7833 270° West 141 162 3,000  Level Chicago TRACON
Mon 07:30:22 AM 41.7500 -87.8500 270° West 244 281 4,000 556 Climbing Chicago TRACON
Mon 07:31:16 AM 41.7833 -87.9333 298° West 267 307 4,000 333 Level Chicago TRACON
Mon 07:31:34 AM 41.7864 -87.9478 286° West 260 299 4,400 1,443 Climbing Chicago Center
Mon 07:32:35 AM 41.8183 -88.0381 295° West 266 306 5,900 1,366 Climbing Chicago Center
Mon 07:33:37 AM 41.8519 -88.1300 296° West 273 314 7,200 2,244 Climbing Chicago Center
Mon 07:34:38 AM 41.8697 -88.2319 283° West 287 330 10,500 2,557 Climbing Chicago Center
Mon 07:35:39 AM 41.8789 -88.3406 277° West 296 341 12,400 2,780 Climbing Chicago Center
Mon 07:36:41 AM 41.8900 -88.4908 276° West 335 386 16,200 3,561 Climbing Chicago Center
Mon 07:37:42 AM 41.8811 -88.6119 264° West 332 382 19,700 2,852 Climbing Chicago Center
Mon 07:38:43 AM 41.8639 -88.7336 259° West 333 383 22,000 1,902 Climbing Chicago Center
Mon 07:39:45 AM 41.8442 -88.8611 258° West 350 403 23,600 1,366 Climbing Chicago Center
Mon 07:40:46 AM 41.8208 -89.0039 258° West 390 449 24,800 1,328 Climbing Chicago Center
Mon 07:41:47 AM 41.7986 -89.1528 259° West 407 468 26,300 1,463 Climbing Chicago Center
Mon 07:42:49 AM 41.7794 -89.3072 261° West 418 481 27,800 1,805 Climbing Chicago Center
Mon 07:43:50 AM 41.7544 -89.4975 260° West 433 498 30,000 2,098 Climbing Chicago Center
Mon 07:44:52 AM 41.7356 -89.6392 260° West 430 495 32,100 2,049 Climbing Chicago Center
Mon 07:45:53 AM 41.7153 -89.7886 260° West 418 481 34,200 1,918 Climbing Chicago Center
Mon 07:46:54 AM 41.6953 -89.9319 259° West 401 461 36,000 1,854 Climbing Chicago Center
Mon 07:47:56 AM 41.6722 -90.0983 260° West 386 444 38,000 976 Climbing Chicago Center
Mon 07:48:57 AM 41.6536 -90.2342 260° West 377 434 38,000  Level Chicago Center
Mon 07:49:59 AM 41.6331 -90.3747 259° West 384 442 38,000  Level Chicago Center
Mon 07:51:01 AM 41.6128 -90.5139 259° West 383 441 38,000  Level Chicago Center
Mon 07:52:02 AM 41.5919 -90.6625 259° West 382 440 38,000  Level Chicago Center
Mon 07:53:03 AM 41.5717 -90.8008 259° West 382 440 38,000  Level Chicago Center
Mon 07:54:04 AM 41.5514 -90.9400 259° West 383 441 38,000  Level Chicago Center
Mon 07:55:06 AM 41.5300 -91.0806 259° West 387 445 38,000  Level Chicago Center
Mon 07:56:07 AM 41.5056 -91.2425 259° West 394 453 38,000  Level Chicago Center
Mon 07:57:09 AM 41.4878 -91.3661 259° West 394 453 38,000  Level Chicago Center
Mon 07:58:10 AM 41.4647 -91.5111 258° West 399 459 38,000  Level Chicago Center
Mon 07:59:12 AM 41.4383 -91.6842 259° West 400 460 38,000  Level Chicago Center
Mon 08:00:13 AM 41.4158 -91.8297 258° West 402 463 38,000  Level Chicago Center
Mon 08:01:15 AM 41.3933 -91.9736 258° West 400 460 38,000  Level Chicago Center
Mon 08:02:16 AM 41.3706 -92.1153 258° West 395 455 38,000  Level Chicago Center
Mon 08:03:18 AM 41.3481 -92.2575 258° West 394 453 38,000  Level Chicago Center
Mon 08:04:19 AM 41.3256 -92.3983 258° West 377 434 38,000  Level Chicago Center
Mon 08:05:21 AM 41.3044 -92.5286 258° West 367 422 38,000  Level Chicago Center
Mon 08:06:03 AM 41.2872 -92.6347 258° West 365 420 38,000  Level Minneapolis Center
Mon 08:07:04 AM 41.2661 -92.7644 258° West 364 419 38,000  Level Minneapolis Center
Mon 08:08:05 AM 41.2442 -92.8936 257° West 363 418 38,000  Level Minneapolis Center
Mon 08:09:05 AM 41.2214 -93.0244 257° West 367 422 38,000  Level Minneapolis Center
Mon 08:10:06 AM 41.2000 -93.1553 258° West 367 422 38,000  Level Minneapolis Center
Mon 08:11:07 AM 41.1783 -93.2864 258° West 367 422 38,000  Level Minneapolis Center
Mon 08:12:09 AM 41.1550 -93.4183 257° West 370 426 38,000  Level Minneapolis Center
Mon 08:13:10 AM 41.1286 -93.5731 257° West 365 420 38,000  Level Minneapolis Center
Mon 08:14:11 AM 41.1061 -93.7058 257° West 370 426 38,000  Level Minneapolis Center
Mon 08:15:12 AM 41.0831 -93.8386 257° West 372 428 38,000  Level Minneapolis Center
Mon 08:16:13 AM 41.0583 -93.9717 256° West 373 429 38,000  Level Minneapolis Center
Mon 08:17:14 AM 41.0367 -94.1006 257° West 366 421 38,000  Level Minneapolis Center
Mon 08:18:15 AM 41.0122 -94.2311 256° West 367 422 38,000  Level Minneapolis Center
Mon 08:19:17 AM 40.9861 -94.3625 255° West 370 426 38,000  Level Minneapolis Center
Mon 08:20:18 AM 40.9572 -94.5150 256° West 366 421 38,000  Level Minneapolis Center
Mon 08:21:19 AM 40.9381 -94.6394 259° West 355 409 38,000  Level Minneapolis Center
Mon 08:22:20 AM 40.9156 -94.7664 257° West 354 407 38,000  Level Minneapolis Center
Mon 08:23:22 AM 40.8911 -94.8950 256° West 359 413 38,000  Level Minneapolis Center
Mon 08:24:23 AM 40.8667 -95.0214 256° West 357 411 38,000  Level Minneapolis Center
Mon 08:25:24 AM 40.8422 -95.1497 256° West 359 413 38,000  Level Minneapolis Center
Mon 08:26:25 AM 40.8189 -95.2794 257° West 362 417 38,000  Level Minneapolis Center
Mon 08:27:26 AM 40.7942 -95.4086 256° West 362 417 38,000  Level Minneapolis Center
Mon 08:28:28 AM 40.7697 -95.5383 256° West 363 418 38,000  Level Minneapolis Center
Mon 08:29:29 AM 40.7447 -95.6675 256° West 362 417 38,000  Level Minneapolis Center
Mon 08:30:30 AM 40.7203 -95.7942 256° West 359 413 38,000  Level Minneapolis Center
Mon 08:31:32 AM 40.6956 -95.9222 256° West 359 413 38,000  Level Minneapolis Center
Mon 08:32:33 AM 40.6642 -96.0806 255° West 365 420 38,000  Level Minneapolis Center
Mon 08:33:34 AM 40.6389 -96.2108 256° West 365 420 38,000  Level Minneapolis Center
Mon 08:34:36 AM 40.6125 -96.3406 255° West 366 421 38,000  Level Minneapolis Center
Mon 08:35:37 AM 40.5867 -96.4689 255° West 364 419 38,000  Level Minneapolis Center
Mon 08:36:38 AM 40.5617 -96.5958 256° West 360 414 38,000  Level Minneapolis Center
Mon 08:37:40 AM 40.5353 -96.7222 255° West 358 412 38,000  Level Minneapolis Center
Mon 08:38:41 AM 40.5094 -96.8489 255° West 358 412 38,000  Level Minneapolis Center
Mon 08:39:42 AM 40.4842 -96.9750 255° West 357 411 38,000  Level Minneapolis Center
Mon 08:40:43 AM 40.4583 -97.1006 255° West 357 411 38,000  Level Minneapolis Center
Mon 08:41:45 AM 40.4325 -97.2256 255° West 356 410 38,000  Level Minneapolis Center
Mon 08:42:46 AM 40.4014 -97.3736 255° West 355 409 38,000  Level Minneapolis Center
Mon 08:43:47 AM 40.3750 -97.4983 255° West 354 407 38,000  Level Minneapolis Center
Mon 08:44:49 AM 40.3489 -97.6222 255° West 352 405 38,000  Level Minneapolis Center
Mon 08:45:50 AM 40.3222 -97.7447 254° West 351 404 38,000  Level Minneapolis Center
Mon 08:46:51 AM 40.2958 -97.8672 254° West 350 403 38,000  Level Minneapolis Center
Mon 08:47:53 AM 40.2689 -97.9906 254° West 350 403 38,000  Level Minneapolis Center
Mon 08:48:54 AM 40.2428 -98.1136 255° West 350 403 38,000  Level Minneapolis Center
Mon 08:49:55 AM 40.2158 -98.2378 254° West 351 404 38,000  Level Minneapolis Center
Mon 08:50:57 AM 40.1889 -98.3617 254° West 352 405 38,000  Level Minneapolis Center
Mon 08:51:58 AM 40.1606 -98.4878 254° West 357 411 38,000  Level Minneapolis Center
Mon 08:53:00 AM 40.1331 -98.6142 254° West 359 413 38,000  Level Minneapolis Center
Mon 08:54:01 AM 40.1053 -98.7406 254° West 361 415 38,000  Level Minneapolis Center
Mon 08:55:02 AM 40.0703 -98.8919 253° West 362 417 38,000  Level Minneapolis Center
Mon 08:55:19 AM 40.0653 -98.9178 256° West 358 412 38,000  Level Denver Center
Mon 08:56:19 AM 40.0369 -99.0436 254° West 360 414 38,000  Level Denver Center
Mon 08:57:20 AM 40.0078 -99.1697 253° West 362 417 38,000  Level Denver Center
Mon 08:58:21 AM 39.9786 -99.2967 253° West 365 420 38,000  Level Denver Center
Mon 08:59:22 AM 39.9497 -99.4247 254° West 367 422 38,000  Level Denver Center
Mon 09:00:23 AM 39.9194 -99.5547 253° West 373 429 38,000  Level Denver Center
Mon 09:01:24 AM 39.8897 -99.6850 253° West 375 432 38,000  Level Denver Center
Mon 09:02:24 AM 39.8589 -99.8144 253° West 374 430 38,000  Level Denver Center
Mon 09:03:25 AM 39.8281 -99.9442 253° West 376 433 38,000  Level Denver Center
Mon 09:04:26 AM 39.7967 -100.0750 253° West 377 434 38,000  Level Denver Center
Mon 09:05:27 AM 39.7647 -100.2122 253° West 382 440 38,000  Level Denver Center
Mon 09:06:28 AM 39.7303 -100.3581 253° West 379 436 38,000  Level Denver Center
Mon 09:07:29 AM 39.6994 -100.4836 252° West 381 438 38,000  Level Denver Center
Mon 09:08:29 AM 39.6692 -100.6083 253° West 380 437 38,000  Level Denver Center
Mon 09:09:30 AM 39.6325 -100.7547 252° West 381 438 38,000  Level Denver Center
Mon 09:10:31 AM 39.6031 -100.8814 253° West 383 441 38,000  Level Denver Center
Mon 09:11:32 AM 39.5708 -101.0078 252° West 386 444 38,000  Level Denver Center
Mon 09:12:33 AM 39.5339 -101.1589 252° West 392 451 38,000  Level Denver Center
Mon 09:13:34 AM 39.5028 -101.2850 252° West 386 444 38,000  Level Denver Center
Mon 09:14:34 AM 39.4708 -101.4094 252° West 384 442 38,000  Level Denver Center
Mon 09:15:35 AM 39.4344 -101.5578 252° West 385 443 38,000  Level Denver Center
Mon 09:16:36 AM 39.4036 -101.6844 253° West 386 444 38,000  Level Denver Center
Mon 09:17:37 AM 39.3697 -101.8089 251° West 383 441 38,000  Level Denver Center
Mon 09:18:38 AM 39.3344 -101.9558 253° West 383 441 38,000  Level Denver Center
Mon 09:19:39 AM 39.3006 -102.0783 250° West 381 438 38,000  Level Denver Center
Mon 09:20:40 AM 39.2681 -102.2014 251° West 379 436 38,000  Level Denver Center
Mon 09:21:40 AM 39.2314 -102.3436 252° West 376 433 38,000  Level Denver Center
Mon 09:22:41 AM 39.2006 -102.4664 252° West 378 435 38,000  Level Denver Center
Mon 09:23:42 AM 39.1628 -102.6072 251° West 375 432 38,000  Level Denver Center
Mon 09:24:43 AM 39.1308 -102.7294 251° West 377 434 38,000 246 Level Denver Center
Mon 09:25:44 AM 39.0950 -102.8664 251° West 379 436 38,500 492 Climbing Denver Center
Mon 09:26:45 AM 39.0592 -102.9961 250° West 381 438 39,000 492 Climbing Denver Center
Mon 09:27:46 AM 39.0258 -103.1228 251° West 373 429 39,500 492 Climbing Denver Center
Mon 09:28:47 AM 38.9925 -103.2481 251° West 368 423 40,000 246 Climbing Denver Center
Mon 09:29:48 AM 38.9572 -103.3775 251° West 378 435 40,000  Level Denver Center
Mon 09:30:49 AM 38.9231 -103.5039 251° West 372 428 40,000  Level Denver Center
Mon 09:31:50 AM 38.8883 -103.6308 251° West 373 429 40,000  Level Denver Center
Mon 09:32:50 AM 38.8533 -103.7575 250° West 372 428 40,000  Level Denver Center
Mon 09:33:51 AM 38.8217 -103.8714 250° West 373 429 40,000  Level Denver Center
Mon 09:34:52 AM 38.7822 -104.0114 250° West 376 433 40,000  Level Denver Center
Mon 09:35:53 AM 38.7472 -104.1406 251° West 377 434 40,000  Level Denver Center
Mon 09:36:54 AM 38.7103 -104.2700 250° West 381 438 40,000  Level Denver Center
Mon 09:37:55 AM 38.6739 -104.4028 251° West 387 445 40,000  Level Denver Center
Mon 09:38:56 AM 38.6361 -104.5339 250° West 389 448 40,000  Level Denver Center
Mon 09:39:57 AM 38.5989 -104.6669 250° West 391 450 40,000  Level Denver Center
Mon 09:40:58 AM 38.5603 -104.8011 250° West 395 455 40,000  Level Denver Center
Mon 09:41:59 AM 38.5214 -104.9367 250° West 401 461 40,000  Level Denver Center
Mon 09:43:00 AM 38.4822 -105.0722 250° West 403 464 40,000  Level Denver Center
Mon 09:44:02 AM 38.4436 -105.2047 250° West 397 457 40,000  Level Denver Center
Mon 09:45:03 AM 38.4039 -105.3392 249° West 400 460 40,000  Level Denver Center
Mon 09:46:04 AM 38.3642 -105.4725 249° West 400 460 40,000  Level Denver Center
Mon 09:47:05 AM 38.3258 -105.6031 250° West 402 463 40,000  Level Denver Center
Mon 09:48:06 AM 38.2831 -105.7494 250° West 398 458 40,000  Level Denver Center
Mon 09:49:07 AM 38.2447 -105.8767 249° West 401 461 40,000  Level Denver Center
Mon 09:50:08 AM 38.2056 -106.0067 249° West 412 474 40,000  Level Denver Center
Mon 09:51:09 AM 38.1600 -106.1592 249° West 414 476 40,000  Level Denver Center
Mon 09:52:10 AM 38.1214 -106.2875 249° West 407 468 40,000  Level Denver Center
Mon 09:53:11 AM 38.0822 -106.4186 249° West 398 458 40,000  Level Denver Center
Mon 09:54:12 AM 38.0389 -106.5603 249° West 391 450 40,000  Level Denver Center
Mon 09:55:14 AM 38.0017 -106.6817 249° West 386 444 40,000  Level Denver Center
Mon 09:56:15 AM 37.9639 -106.8014 248° West 383 441 40,000  Level Denver Center
Mon 09:57:16 AM 37.9208 -106.9431 249° West 385 443 40,000  Level Denver Center
Mon 09:58:17 AM 37.8817 -107.0667 248° West 391 450 40,000  Level Denver Center
Mon 09:59:18 AM 37.8433 -107.1889 248° West 389 448 40,000  Level Denver Center
Mon 10:00:19 AM 37.7981 -107.3331 248° West 395 455 40,000  Level Denver Center
Mon 10:01:20 AM 37.7608 -107.4533 249° West 389 448 40,000  Level Denver Center
Mon 10:02:22 AM 37.7167 -107.5958 249° West 389 448 40,000  Level Denver Center
Mon 10:03:23 AM 37.6783 -107.7144 248° West 386 444 40,000  Level Denver Center
Mon 10:04:24 AM 37.6403 -107.8328 248° West 382 440 40,000  Level Denver Center
Mon 10:05:25 AM 37.5950 -107.9736 248° West 386 444 40,000  Level Denver Center
Mon 10:06:27 AM 37.5569 -108.0928 248° West 386 444 40,000  Level Denver Center
Mon 10:07:28 AM 37.5186 -108.2117 248° West 382 440 40,000  Level Denver Center
Mon 10:08:29 AM 37.4733 -108.3511 248° West 385 443 40,000  Level Denver Center
Mon 10:09:31 AM 37.4342 -108.4694 247° West 384 442 40,000  Level Denver Center
Mon 10:10:32 AM 37.3892 -108.6058 247° West 381 438 40,000  Level Denver Center
Mon 10:11:34 AM 37.3489 -108.7269 247° West 387 445 40,000  Level Denver Center
Mon 10:12:35 AM 37.3025 -108.8681 248° West 393 452 40,000  Level Denver Center
Mon 10:13:36 AM 37.2622 -108.9903 248° West 395 455 40,000  Level Denver Center
Mon 10:14:38 AM 37.2208 -109.1122 247° West 396 456 40,000  Level Denver Center
Mon 10:15:39 AM 37.1753 -109.2508 248° West 387 445 40,000  Level Denver Center
Mon 10:16:41 AM 37.1358 -109.3656 247° West 378 435 40,000  Level Denver Center
Mon 10:17:42 AM 37.0903 -109.4986 247° West 374 430 40,000  Level Denver Center
Mon 10:18:44 AM 37.0522 -109.6144 248° West 376 433 40,000  Level Denver Center
Mon 10:19:46 AM 37.0131 -109.7261 246° West 371 427 40,000  Level Denver Center
Mon 10:20:47 AM 36.9686 -109.8575 247° West 368 423 40,000  Level Denver Center
Mon 10:21:49 AM 36.9286 -109.9717 246° West 372 428 40,000  Level Denver Center
Mon 10:22:50 AM 36.8836 -110.1047 247° West 374 430 40,000  Level Denver Center
Mon 10:23:52 AM 36.8444 -110.2169 246° West 374 430 40,000  Level Denver Center
Mon 10:24:54 AM 36.8036 -110.3347 247° West 370 426 40,000  Level Denver Center
Mon 10:25:55 AM 36.7628 -110.4533 247° West 372 428 40,000  Level Denver Center
Mon 10:26:57 AM 36.7125 -110.5964 246° West 375 432 40,000  Level Denver Center
Mon 10:27:59 AM 36.6692 -110.7150 246° West 376 433 40,000  Level Denver Center
Mon 10:29:01 AM 36.6294 -110.8328 247° West 373 429 40,000  Level Denver Center
Mon 10:30:02 AM 36.5889 -110.9481 246° West 367 422 40,000  Level Denver Center
Mon 10:31:04 AM 36.5458 -111.0686 246° West 373 429 40,000  Level Denver Center
Mon 10:32:06 AM 36.5022 -111.1892 246° West 380 437 40,000  Level Denver Center
Mon 10:33:08 AM 36.4589 -111.3103 246° West 383 441 40,000  Level Denver Center
Mon 10:34:09 AM 36.4056 -111.4567 246° West 385 443 40,000  Level Denver Center
Mon 10:35:11 AM 36.3611 -111.5778 246° West 386 444 40,000  Level Denver Center
Mon 10:36:13 AM 36.3186 -111.6972 246° West 381 438 40,000 -97 Level Denver Center
Mon 10:37:15 AM 36.2744 -111.8147 245° Southwest 378 435 39,800 -1,065 Descending Denver Center
Mon 10:38:17 AM 36.2322 -111.9328 246° West 375 432 37,800 -1,714 Descending Denver Center
Mon 10:39:28 AM 36.1808 -112.0667 245° Southwest 373 429 36,000 -818 Descending Los Angeles Center
Mon 10:40:29 AM 36.1394 -112.1806 246° West 365 420 36,000  Level Los Angeles Center
Mon 10:41:31 AM 36.0950 -112.3031 246° West 367 422 36,000  Level Los Angeles Center
Mon 10:42:33 AM 36.0511 -112.4194 245° Southwest 373 429 36,000  Level Los Angeles Center
Mon 10:43:34 AM 36.0075 -112.5353 245° Southwest 373 429 36,000  Level Los Angeles Center
Mon 10:44:36 AM 35.9569 -112.6722 246° West 365 420 36,000  Level Los Angeles Center
Mon 10:45:50 AM 35.9089 -112.7981 245° Southwest 368 423 36,000  Level Los Angeles Center
Mon 10:46:52 AM 35.8669 -112.9097 245° Southwest 363 418 36,000  Level Los Angeles Center
Mon 10:47:53 AM 35.8158 -113.0453 245° Southwest 367 422 36,000  Level Los Angeles Center
Mon 10:48:55 AM 35.7736 -113.1578 245° Southwest 366 421 36,000  Level Los Angeles Center
Mon 10:49:57 AM 35.7300 -113.2692 244° Southwest 365 420 36,000  Level Los Angeles Center
Mon 10:50:58 AM 35.6878 -113.3786 245° Southwest 361 415 36,000  Level Los Angeles Center
Mon 10:52:00 AM 35.6458 -113.4908 245° Southwest 362 417 36,000  Level Los Angeles Center
Mon 10:53:02 AM 35.6003 -113.6053 244° Southwest 371 427 36,000  Level Los Angeles Center
Mon 10:54:04 AM 35.5447 -113.7406 243° Southwest 372 428 36,000 -537 Level Los Angeles Center
Mon 10:55:05 AM 35.5008 -113.8508 244° Southwest 366 421 34,900 -1,268 Descending Los Angeles Center
Mon 10:56:07 AM 35.4550 -113.9664 244° Southwest 371 427 33,400 -1,597 Descending Los Angeles Center
Mon 10:57:09 AM 35.4064 -114.0853 243° Southwest 380 437 31,600 -1,645 Descending Los Angeles Center
Mon 10:58:11 AM 35.3558 -114.2036 242° Southwest 386 444 30,000 -780 Descending Los Angeles Center
Mon 10:59:12 AM 35.3119 -114.3092 243° Southwest 362 417 30,000  Level Los Angeles Center
Mon 11:00:14 AM 35.2606 -114.4328 243° Southwest 340 391 30,000  Level Los Angeles Center
Mon 11:01:16 AM 35.2197 -114.5311 243° Southwest 326 375 30,000  Level Los Angeles Center
Mon 11:02:18 AM 35.1753 -114.6406 244° Southwest 353 406 30,000  Level Los Angeles Center
Mon 11:03:20 AM 35.1286 -114.7481 242° Southwest 356 410 30,000  Level Los Angeles Center
Mon 11:04:21 AM 35.0869 -114.8500 243° Southwest 339 390 30,000  Level Los Angeles Center
Mon 11:05:23 AM 35.0439 -114.9525 243° Southwest 340 391 30,000  Level Los Angeles Center
Mon 11:06:25 AM 34.9992 -115.0592 243° Southwest 349 402 30,000 -194 Level Los Angeles Center
Mon 11:07:27 AM 34.9442 -115.1886 243° Southwest 357 411 29,600 -726 Descending Los Angeles Center
Mon 11:08:29 AM 34.9006 -115.2919 243° Southwest 345 397 28,500 -1,024 Descending Los Angeles Center
Mon 11:09:30 AM 34.8581 -115.3931 243° Southwest 336 387 27,500 -732 Descending Los Angeles Center
Mon 11:10:32 AM 34.8139 -115.4956 242° Southwest 340 391 27,000 -242 Descending Los Angeles Center
Mon 11:11:34 AM 34.7672 -115.6025 242° Southwest 346 398 27,000  Level Los Angeles Center
Mon 11:12:36 AM 34.7264 -115.7008 243° Southwest 329 379 27,000  Level Los Angeles Center
Mon 11:13:38 AM 34.6828 -115.8006 242° Southwest 333 383 27,000  Level Los Angeles Center
Mon 11:14:40 AM 34.6400 -115.9017 243° Southwest 338 389 27,000  Level Los Angeles Center
Mon 11:15:42 AM 34.5969 -115.9989 242° Southwest 332 382 27,000  Level Los Angeles Center
Mon 11:16:44 AM 34.5469 -116.1161 243° Southwest 327 376 27,000  Level Los Angeles Center
Mon 11:17:45 AM 34.5025 -116.2181 242° Southwest 337 388 27,000  Level Los Angeles Center
Mon 11:18:47 AM 34.4592 -116.3161 242° Southwest 332 382 27,000  Level Los Angeles Center
Mon 11:19:49 AM 34.4161 -116.4136 242° Southwest 328 377 27,000  Level Los Angeles Center
Mon 11:20:51 AM 34.3725 -116.5142 242° Southwest 336 387 27,000  Level Los Angeles Center
Mon 11:21:53 AM 34.3275 -116.6150 242° Southwest 339 390 27,000  Level Los Angeles Center
Mon 11:22:55 AM 34.2822 -116.7181 242° Southwest 345 397 27,000 -919 Level Los Angeles Center
Mon 11:23:57 AM 34.2275 -116.8386 241° Southwest 341 392 25,100 -2,032 Descending Los Angeles Center
Mon 11:24:59 AM 34.1858 -116.9333 242° Southwest 324 373 22,800 -2,129 Descending Los Angeles Center
Mon 11:26:01 AM 34.1444 -117.0239 241° Southwest 310 357 20,700 -1,949 Descending Los Angeles Center
Mon 11:26:56 AM 34.1000 -117.1167 240° Southwest 291 335 19,000 -936 Descending Southern California TRACON
Mon 11:27:50 AM 34.0667 -117.1833 239° Southwest 304 350 19,000 -632 Level Southern California TRACON
Mon 11:28:50 AM 34.0500 -117.2833 259° West 286 329 17,800 -1,579 Descending Southern California TRACON
Mon 11:29:44 AM 34.0333 -117.3667 256° West 270 311 16,000 -1,947 Descending Southern California TRACON
Mon 11:30:44 AM 34.0333 -117.4500 270° West 264 304 14,100 -1,750 Descending Southern California TRACON
Mon 11:31:44 AM 34.0333 -117.5333 270° West 233 268 12,500 -1,474 Descending Southern California TRACON
Mon 11:32:38 AM 34.0333 -117.6167 270° West 243 280 11,300 -1,158 Descending Southern California TRACON
Mon 11:33:38 AM 34.0167 -117.6833 253° West 210 242 10,300 -842 Descending Southern California TRACON
Mon 11:34:32 AM 34.0167 -117.7500 270° West 234 269 9,700 -579 Descending Southern California TRACON
Mon 11:35:32 AM 34.0167 -117.8333 270° West 240 276 9,200 -678 Descending Southern California TRACON
Mon 11:36:27 AM 34.0000 -117.9167 256° West 247 284 8,400 -991 Descending Southern California TRACON
Mon 11:37:21 AM 34.0000 -117.9833 270° West 262 302 7,400 -1,579 Descending Southern California TRACON
Mon 11:38:21 AM 33.9833 -118.0667 256° West 279 321 5,400 -1,650 Descending Southern California TRACON
Mon 11:39:21 AM 33.9833 -118.1667 270° West 254 292 4,100 -1,250 Descending Southern California TRACON
Mon 11:40:21 AM 33.9667 -118.2333 253° West 211 243 2,900 -1,100 Descending Southern California TRACON
Mon 11:41:21 AM 33.9667 -118.3000 270° West 178 205 1,900 -900 Descending Southern California TRACON
Mon 11:42:21 AM 33.9500 -118.3500 248° West 138 159 1,100 -700 Descending Southern California TRACON
Mon 11:43:21 AM 33.9500 -118.3833 270° West 119 137 500 -451 Descending Southern California TRACON
Mon 11:44:34 AM 33.9500 -118.4233 270° West 133 153 100 -329 Descending Los Angeles Center

Login

Don't have an account? Register now (free) for customized features, flight alerts, and more!